METAR Data
IDs: Format: Raw Decoded Include TAF

Data at: 1437 UTC 10 Aug 2022

KBIH 101356Z AUTO 08003KT 10SM CLR 18/12 A3014 RMK AO2 SLP155 T01830117
KBIH 101256Z AUTO 36004KT 10SM CLR 16/11 A3011 RMK AO2 SLP148 T01610106
KBIH 101156Z AUTO 00000KT 10SM CLR 17/11 A3010 RMK AO2 SLP142 T01670111 10256 20167 53005
KBIH 101056Z AUTO 33004KT 10SM CLR 18/11 A3009 RMK AO2 SLP134 T01830111
KBIH 100956Z AUTO 01003KT 10SM CLR 18/11 A3008 RMK AO2 SLP133 T01830111
KBIH 100856Z AUTO 00000KT 10SM CLR 21/12 A3008 RMK AO2 SLP132 T02060117 51008
KBIH 100756Z AUTO 05003KT 10SM CLR 22/11 A3008 RMK AO2 SLP130 T02170111 403330183
KBIH 100656Z AUTO 21003KT 10SM BKN100 23/12 A3007 RMK AO2 SLP126 T02330117
KBIH 100556Z AUTO 00000KT 10SM BKN110 26/11 A3005 RMK AO2 SLP119 60000 T02560111 10317 20244 53014
KBIH 100456Z AUTO 21005KT 10SM OVC120 26/11 A3004 RMK AO2 SLP114 T02610106
KBIH 100356Z AUTO 18006KT 10SM BKN120 27/10 A3002 RMK AO2 SLP109 T02720100
KBIH 100256Z AUTO 15011KT 10SM CLR 29/10 A3001 RMK AO2 SLP106 60000 T02890100 51006
KBIH 100156Z AUTO 14011KT 10SM FEW120 31/11 A2999 RMK AO2 SLP103 T03060106
KBIH 100056Z AUTO 15012KT 10SM BKN110 30/11 A3000 RMK AO2 PK WND 16026/0022 RAB08E18 SLP108 P0000 T03000106
KBIH 092356Z AUTO 17014G24KT 10SM FEW100 BKN120 31/12 A2999 RMK AO2 PK WND 16026/2345 SLP101 60000 T03060117 10333 20294 56012
KBIH 092256Z AUTO 16008KT 10SM SCT120 33/10 A3000 RMK AO2 SLP100 T03330100
KBIH 092156Z AUTO 15014KT 10SM FEW065 OVC110 32/10 A3001 RMK AO2 RAB29E40 SLP106 P0000 T03220100
KBIH 092056Z AUTO 16018G23KT 10SM SCT120 32/11 A3003 RMK AO2 PK WND 16027/2026 SLP112 T03170106 58013
KBIH 091956Z AUTO 14018G24KT 10SM FEW095 BKN120 32/11 A3005 RMK AO2 PK WND 13027/1914 LTG DSNT NE SLP120 T03170106
KBIH 091938Z AUTO 15013G24KT 10SM OVC120 31/10 A3005 RMK AO2 PK WND 13027/1914 LTG DSNT N AND NE T03060100
KBIH 091907Z AUTO 14018G25KT 10SM VCTS BKN120 31/10 A3007 RMK AO2 T03060100
KBIH 091856Z AUTO 14017G27KT 10SM BKN120 31/11 A3007 RMK AO2 PK WND 15027/1854 SLP126 T03060106
KBIH 091756Z AUTO 16017G23KT 10SM SCT120 31/11 A3007 RMK AO2 SLP126 T03060111 10306 20183 58002
KBIH 091656Z AUTO 17009KT 10SM SCT120 30/12 A3008 RMK AO2 SLP127 T03000117
KBIH 091556Z AUTO 16003KT 10SM CLR 27/13 A3008 RMK AO2 SLP131 T02670128
KBIH 091456Z AUTO 00000KT 10SM CLR 24/13 A3008 RMK AO2 SLP133 T02390128 52005
KBIH 091356Z AUTO 27003KT 10SM FEW120 21/13 A3008 RMK AO2 SLP132 T02060133
KBIH 091256Z AUTO 35004KT 10SM CLR 19/13 A3006 RMK AO2 SLP129 T01890133
KBIH 091156Z AUTO VRB03KT 10SM CLR 20/13 A3006 RMK AO2 SLP123 T02000133 10250 20200 53000
KBIH 091056Z AUTO 34004KT 10SM CLR 22/13 A3005 RMK AO2 SLP120 T02170128
KBIH 090956Z AUTO 34003KT 10SM CLR 22/13 A3005 RMK AO2 SLP119 T02170133
KBIH 090856Z AUTO 32005KT 10SM CLR 23/13 A3006 RMK AO2 SLP119 T02280128 58002
KBIH 090756Z AUTO 00000KT 10SM CLR 21/13 A3007 RMK AO2 SLP126 T02110128 403610172
KBIH 090656Z AUTO 25005KT 10SM CLR 23/13 A3007 RMK AO2 SLP122 T02330128
KBIH 090556Z AUTO 30006KT 10SM BKN110 25/12 A3007 RMK AO2 SLP121 T02500122 10344 20250 51011
KBIH 090456Z AUTO 29007KT 10SM BKN120 27/12 A3006 RMK AO2 SLP120 T02670117
KBIH 090356Z AUTO 36006KT 10SM SCT120 27/12 A3005 RMK AO2 SLP118 T02720122
KBIH 090256Z AUTO 31007KT 10SM FEW110 27/13 A3003 RMK AO2 LTG DSNT W SLP115 T02720128 53006